Time;durP1;ratioP1;P1;durP2;ratioP2;P2;SDS_P1;SDS_P2;PMS_P1;PMS_P2;Temp;Humidity;BMP_temperature;BMP_pressure;BME280_temperature;BME280_humidity;BME280_pressure;Samples;Min_cycle;Max_cycle;Signal;HPM_P1;HPM_P2
2022/01/26 00:07:12;;;;;;;122.60;68.37;;;;;;;-3.31;100.00;99414.19;1619773;88;20982;-72
2022/01/26 00:09:39;;;;;;;122.42;60.90;;;;;;;-3.30;100.00;99410.59;1622605;88;20885;-70
2022/01/26 00:12:06;;;;;;;116.45;54.90;;;;;;;-3.30;100.00;99407.97;1622197;88;20933;-70
2022/01/26 00:14:34;;;;;;;183.65;81.17;;;;;;;-3.24;100.00;99411.22;1622924;88;20916;-68
2022/01/26 00:17:01;;;;;;;100.55;43.70;;;;;;;-3.22;100.00;99405.81;1621514;87;21146;-67
2022/01/26 00:19:44;;;;;;;104.58;53.52;;;;;;;-3.21;100.00;99404.00;1622423;86;20945;-67
2022/01/26 00:21:57;;;;;;;195.43;107.63;;;;;;;-3.25;100.00;99403.03;1620995;87;21013;-68
2022/01/26 00:27:22;;;;;;;106.67;43.42;;;;;;;-3.16;100.00;99410.41;1622024;88;20951;-68
2022/01/26 00:29:40;;;;;;;149.82;79.22;;;;;;;-3.18;100.00;99408.44;1605505;88;21141;-68
2022/01/26 00:40:42;;;;;;;86.42;40.90;;;;;;;-3.19;100.00;99395.47;1597365;88;20970;-68
2022/01/26 00:43:16;;;;;;;92.72;44.70;;;;;;;-3.18;100.00;99394.50;1600836;88;21829;-68
2022/01/26 00:45:36;;;;;;;338.60;147.35;;;;;;;-3.13;100.00;99394.80;1621987;88;21501;-68
2022/01/26 00:48:05;;;;;;;231.47;102.07;;;;;;;-3.17;100.00;99393.50;1622639;88;20941;-68
2022/01/26 00:50:33;;;;;;;123.60;57.23;;;;;;;-3.10;100.00;99387.39;1622970;88;20938;-69
2022/01/26 00:53:00;;;;;;;99.05;47.98;;;;;;;-3.09;100.00;99390.84;1629078;87;20931;-69
2022/01/26 00:55:26;;;;;;;112.90;66.30;;;;;;;-3.14;100.00;99386.59;1607616;88;21156;-69
2022/01/26 00:57:53;;;;;;;114.12;55.00;;;;;;;-3.14;100.00;99376.90;1633471;87;20949;-69
2022/01/26 01:00:22;;;;;;;141.55;86.95;;;;;;;-3.14;100.00;99379.52;1622786;88;20874;-69
2022/01/26 01:02:52;;;;;;;101.97;49.20;;;;;;;-3.12;100.00;99380.68;1622678;88;21070;-69
2022/01/26 01:05:22;;;;;;;101.05;49.00;;;;;;;-3.08;100.00;99378.05;1623197;88;20916;-69
2022/01/26 01:07:49;;;;;;;;;;;;;;;-3.07;100.00;99371.80;1625034;88;21456;-69
2022/01/26 01:10:21;;;;;;;102.27;50.95;;;;;;;-3.06;100.00;99370.32;1622767;88;20472;-69
2022/01/26 01:12:49;;;;;;;95.20;46.00;;;;;;;-3.08;100.00;99369.67;1622740;87;20913;-69
2022/01/26 01:15:15;;;;;;;;;;;;;;;-3.06;100.00;99364.26;1625273;87;21563;-69
2022/01/26 01:17:47;;;;;;;99.13;46.92;;;;;;;-3.05;100.00;99359.32;1622642;88;20094;-69
2022/01/26 01:20:43;;;;;;;167.45;78.80;;;;;;;-3.06;100.00;99363.76;1675038;85;21237;-69
2022/01/26 01:23:10;;;;;;;414.73;182.22;;;;;;;-3.06;100.00;99354.56;1680889;85;20906;-69
2022/01/26 01:26:03;;;;;;;397.17;174.53;;;;;;;-3.04;100.00;99358.31;1680739;85;21436;-68
2022/01/26 01:30:42;;;;;;;310.88;125.05;;;;;;;-3.02;100.00;99355.03;1683038;85;21045;-68
2022/01/26 01:33:09;;;;;;;98.45;45.92;;;;;;;-3.01;100.00;99352.75;1675651;85;21150;-69
2022/01/26 01:35:39;;;;;;;280.92;120.70;;;;;;;-3.00;100.00;99359.63;1685999;85;20961;-69
2022/01/26 01:38:11;;;;;;;131.25;60.90;;;;;;;-2.99;100.00;99359.13;1683889;85;20922;-69
2022/01/26 01:40:40;;;;;;;107.95;49.70;;;;;;;-2.97;100.00;99351.90;1684198;85;20921;-69
2022/01/26 01:43:07;;;;;;;82.82;43.23;;;;;;;-2.95;100.00;99354.67;1685028;85;20955;-69
2022/01/26 01:45:36;;;;;;;124.65;62.27;;;;;;;-2.94;100.00;99356.33;1674754;85;21127;-68
2022/01/26 01:48:04;;;;;;;103.72;55.55;;;;;;;-2.92;100.00;99346.44;1683111;85;20957;-68
2022/01/26 01:50:36;;;;;;;99.55;54.75;;;;;;;-2.90;100.00;99347.59;1679009;85;21465;-68
2022/01/26 01:53:01;;;;;;;;;;;;;;;-2.88;100.00;99347.75;1678150;85;20982;-68
2022/01/26 01:55:29;;;;;;;148.68;73.90;;;;;;;-2.86;100.00;99345.77;1674889;85;20105;-68
2022/01/26 01:57:56;;;;;;;89.13;44.20;;;;;;;-2.85;100.00;99346.58;1676224;85;21158;-69
2022/01/26 02:00:24;;;;;;;79.25;38.63;;;;;;;-2.84;100.00;99343.80;1684981;85;20922;-69
2022/01/26 02:02:51;;;;;;;69.72;34.23;;;;;;;-2.83;100.00;99335.41;1685102;85;21500;-69
2022/01/26 02:05:18;;;;;;;89.35;46.13;;;;;;;-2.83;100.00;99339.36;1685222;85;20929;-69
2022/01/26 02:07:45;;;;;;;174.25;78.92;;;;;;;-2.81;100.00;99345.26;1653925;85;20946;-68
2022/01/26 02:10:12;;;;;;;109.25;49.03;;;;;;;-2.82;100.00;99336.56;1674969;85;21146;-68
2022/01/26 02:12:45;;;;;;;103.37;45.23;;;;;;;-2.80;100.00;99341.12;1674035;85;20955;-69
2022/01/26 02:15:15;;;;;;;117.95;50.03;;;;;;;-2.77;100.00;99336.52;1674718;85;21145;-68
2022/01/26 02:55:57;;;;;;;114.52;53.83;;;;;;;-2.27;100.00;99345.74;1613803;86;21001;-68
2022/01/26 03:03:46;;;;;;;46.53;24.12;;;;;;;-2.10;100.00;99347.75;1659161;85;21264;-68
2022/01/26 03:06:14;;;;;;;52.62;25.23;;;;;;;-2.05;100.00;99351.98;1676966;85;20918;-69
2022/01/26 03:08:43;;;;;;;85.77;39.30;;;;;;;-2.00;100.00;99349.13;1673852;85;20949;-68
2022/01/26 03:11:12;;;;;;;;;;;;;;;-1.98;100.00;99351.09;1669021;85;20908;-68
2022/01/26 03:13:38;;;;;;;45.17;24.67;;;;;;;-1.93;100.00;99349.75;1666873;85;20135;-69
2022/01/26 03:16:11;;;;;;;44.05;24.72;;;;;;;-1.91;100.00;99358.26;1664932;85;21159;-67
2022/01/26 03:21:22;;;;;;;49.30;25.85;;;;;;;-1.86;100.00;99360.70;1661431;86;20864;-69
2022/01/26 03:29:42;;;;;;;61.70;29.67;;;;;;;-1.81;100.00;99357.03;1647358;86;21152;-69
2022/01/26 03:32:48;;;;;;;58.95;29.15;;;;;;;-1.83;100.00;99360.34;1653506;86;20949;-68
2022/01/26 03:34:27;;;;;;;56.60;30.45;;;;;;;-1.81;100.00;99364.11;1656107;86;26872;-69
2022/01/26 03:37:01;;;;;;;56.37;26.25;;;;;;;-1.80;100.00;99357.84;1662661;86;20954;-68
2022/01/26 03:39:23;;;;;;;;;;;;;;;-1.81;100.00;99355.72;1659982;86;20952;-69
2022/01/26 03:42:02;;;;;;;53.75;27.22;;;;;;;-1.81;100.00;99362.30;1662205;86;21808;-68
2022/01/26 03:44:18;;;;;;;54.95;27.42;;;;;;;-1.81;100.00;99358.34;1656990;86;21017;-68
2022/01/26 03:46:46;;;;;;;51.35;26.62;;;;;;;-1.83;100.00;99362.97;1657540;86;21463;-68
2022/01/26 03:49:12;;;;;;;46.55;23.62;;;;;;;-1.82;100.00;99362.46;1636056;86;21079;-68
2022/01/26 03:51:40;;;;;;;46.60;25.82;;;;;;;-1.83;100.00;99366.10;1662658;86;20922;-69
2022/01/26 03:54:07;;;;;;;48.75;24.05;;;;;;;-1.82;100.00;99364.59;1658690;86;21138;-69
2022/01/26 03:56:34;;;;;;;52.08;25.80;;;;;;;-1.83;100.00;99375.31;1658340;86;20972;-67
2022/01/26 03:59:00;;;;;;;46.13;25.70;;;;;;;-1.80;100.00;99362.60;1659986;86;20951;-69
2022/01/26 04:01:27;;;;;;;44.93;25.10;;;;;;;-1.84;100.00;99364.45;1659145;86;20965;-68
2022/01/26 04:03:54;;;;;;;46.80;25.17;;;;;;;-1.83;100.00;99366.10;1660216;86;20962;-68
2022/01/26 04:06:20;;;;;;;48.85;24.70;;;;;;;-1.84;100.00;99367.08;1657824;86;21121;-69
2022/01/26 04:08:47;;;;;;;51.85;26.75;;;;;;;-1.84;100.00;99369.70;1660685;86;20905;-68
2022/01/26 04:11:29;;;;;;;52.08;25.25;;;;;;;-1.86;100.00;99373.85;1654336;86;20925;-68
2022/01/26 04:13:44;;;;;;;46.73;24.30;;;;;;;-1.85;100.00;99368.09;1659062;86;20980;-69
2022/01/26 04:16:10;;;;;;;49.05;25.43;;;;;;;-1.86;100.00;99367.27;1661602;86;20925;-68
2022/01/26 04:18:40;;;;;;;49.67;25.23;;;;;;;-1.85;100.00;99369.41;1659917;86;20962;-69
2022/01/26 04:21:18;;;;;;;41.68;21.77;;;;;;;-1.85;100.00;99361.00;1622658;86;21485;-69
2022/01/26 04:23:45;;;;;;;43.25;25.90;;;;;;;-1.86;100.00;99356.75;1620062;87;26364;-69
2022/01/26 04:26:05;;;;;;;46.50;26.40;;;;;;;-1.87;100.00;99363.50;1623403;87;20957;-69
2022/01/26 04:28:39;;;;;;;43.75;24.77;;;;;;;-1.89;100.00;99365.48;1622471;88;21473;-69
2022/01/26 04:31:00;;;;;;;37.88;22.55;;;;;;;-1.89;100.00;99366.30;1621138;88;21172;-68
2022/01/26 04:33:29;;;;;;;44.50;24.15;;;;;;;-1.87;100.00;99368.76;1622411;88;21468;-68
2022/01/26 04:35:56;;;;;;;44.53;23.83;;;;;;;-1.87;100.00;99374.02;1622794;87;20944;-68
2022/01/26 04:38:25;;;;;;;46.55;24.05;;;;;;;-1.87;100.00;99375.33;1622612;88;20966;-69
2022/01/26 04:41:03;;;;;;;;;;;;;;;-1.88;100.00;99378.47;1625002;87;20912;-68
2022/01/26 04:43:24;;;;;;;47.40;25.12;;;;;;;-1.87;100.00;99377.46;1619502;88;21059;-69
2022/01/26 04:45:48;;;;;;;;;;;;;;;-1.87;100.00;99374.83;1624326;88;21475;-68
2022/01/26 04:48:14;;;;;;;58.48;27.42;;;;;;;-1.85;100.00;99384.69;1622703;88;20083;-69
2022/01/26 04:50:41;;;;;;;57.95;30.92;;;;;;;-1.86;100.00;99379.11;1622557;88;21062;-69
2022/01/26 04:53:08;;;;;;;56.60;30.25;;;;;;;-1.87;100.00;99381.91;1622715;88;20963;-68
2022/01/26 04:55:35;;;;;;;58.48;30.50;;;;;;;-1.88;100.00;99384.23;1622479;88;21094;-68
2022/01/26 04:58:01;;;;;;;57.48;31.05;;;;;;;-1.86;100.00;99390.11;1621946;88;20889;-68
2022/01/26 05:00:28;;;;;;;45.90;25.55;;;;;;;-1.87;100.00;99385.86;1622424;87;20963;-67
2022/01/26 05:02:55;;;;;;;43.17;23.90;;;;;;;-1.87;100.00;99394.56;1620326;88;21459;-68
2022/01/26 05:05:22;;;;;;;46.00;24.43;;;;;;;-1.88;100.00;99393.44;1622491;87;20959;-67
2022/01/26 05:07:49;;;;;;;42.90;24.37;;;;;;;-1.88;100.00;99394.76;1622585;88;21138;-69
2022/01/26 05:10:16;;;;;;;44.03;23.73;;;;;;;-1.89;100.00;99395.23;1622380;88;20919;-67
2022/01/26 05:12:43;;;;;;;44.25;24.15;;;;;;;-1.89;100.00;99399.68;1622429;88;20999;-68
2022/01/26 05:15:09;;;;;;;41.68;25.02;;;;;;;-1.92;100.00;99390.33;1622418;87;21478;-68
2022/01/26 05:17:37;;;;;;;44.77;24.55;;;;;;;-1.92;100.00;99397.41;1618595;88;21003;-68
2022/01/26 05:20:09;;;;;;;60.15;32.08;;;;;;;-1.93;100.00;99397.91;1640841;85;21484;-68
2022/01/26 05:22:38;;;;;;;51.48;24.77;;;;;;;-1.95;100.00;99404.66;1658120;86;20928;-67
2022/01/26 05:25:05;;;;;;;43.90;24.43;;;;;;;-1.97;100.00;99405.83;1657291;86;20927;-68
2022/01/26 05:27:33;;;;;;;44.18;21.90;;;;;;;-2.03;100.00;99403.41;1658815;86;20920;-68
2022/01/26 05:30:00;;;;;;;40.52;18.77;;;;;;;-2.05;100.00;99408.53;1658130;86;20966;-68
2022/01/26 05:32:26;;;;;;;45.28;24.40;;;;;;;-2.09;100.00;99405.92;1660130;86;21115;-68
2022/01/26 05:34:53;;;;;;;38.42;22.25;;;;;;;-2.12;100.00;99408.41;1661213;86;20943;-68
2022/01/26 05:37:20;;;;;;;43.80;24.77;;;;;;;-2.14;100.00;99413.02;1660017;86;20875;-68
2022/01/26 05:39:48;;;;;;;50.35;30.05;;;;;;;-2.16;100.00;99417.62;1658374;86;21474;-68
2022/01/26 05:42:15;;;;;;;46.75;27.00;;;;;;;-2.18;100.00;99417.82;1659082;86;21588;-68
2022/01/26 05:44:42;;;;;;;47.73;27.07;;;;;;;-2.18;100.00;99428.81;1695906;84;21831;-68
2022/01/26 05:47:14;;;;;;;47.90;26.15;;;;;;;-2.20;100.00;99434.27;1602866;86;20917;-68
2022/01/26 05:49:37;;;;;;;;;;;;;;;-2.22;100.00;99429.67;1665452;85;21075;-68
2022/01/26 05:52:04;;;;;;;56.18;24.87;;;;;;;-2.22;100.00;99432.30;1664173;85;20734;-68
2022/01/26 05:54:30;;;;;;;60.00;29.95;;;;;;;-2.26;100.00;99424.42;1640270;86;20975;-68
2022/01/26 05:56:57;;;;;;;61.15;31.35;;;;;;;-2.26;100.00;99437.57;1666880;84;21185;-68
2022/01/26 05:59:24;;;;;;;56.00;29.85;;;;;;;-2.27;100.00;99434.63;1648791;86;20926;-68
2022/01/26 06:01:51;;;;;;;56.13;28.98;;;;;;;-2.29;100.00;99431.35;1667078;85;21479;-68
2022/01/26 06:04:18;;;;;;;49.60;25.17;;;;;;;-2.32;100.00;99426.45;1662133;85;20967;-68
2022/01/26 06:06:44;;;;;;;48.85;25.32;;;;;;;-2.33;100.00;99435.31;1643717;86;21047;-68
2022/01/26 06:09:11;;;;;;;52.85;24.60;;;;;;;-2.35;100.00;99435.16;1668777;85;21154;-67
2022/01/26 06:11:37;;;;;;;58.95;29.92;;;;;;;-2.39;100.00;99428.95;1643757;86;21048;-68
2022/01/26 06:14:04;;;;;;;56.68;28.70;;;;;;;-2.38;100.00;99435.86;1656992;85;20908;-67
2022/01/26 06:16:32;;;;;;;65.95;34.75;;;;;;;-2.39;100.00;99434.20;1671796;84;20989;-69
2022/01/26 06:18:58;;;;;;;64.32;29.32;;;;;;;-2.41;100.00;99436.68;1672827;84;20969;-68
2022/01/26 06:21:25;;;;;;;47.80;23.38;;;;;;;-2.41;100.00;99442.75;1648325;85;21091;-68
2022/01/26 06:23:53;;;;;;;67.75;34.03;;;;;;;-2.43;100.00;99443.91;1643548;86;20924;-69
2022/01/26 06:26:20;;;;;;;73.10;35.00;;;;;;;-2.44;100.00;99448.36;1650009;86;21521;-68
2022/01/26 06:28:47;;;;;;;77.97;41.73;;;;;;;-2.45;100.00;99450.68;1645947;86;20966;-69
2022/01/26 06:31:15;;;;;;;77.47;39.73;;;;;;;-2.44;100.00;99453.62;1642452;86;21021;-68
2022/01/26 06:33:43;;;;;;;;;;;;;;;-2.45;100.00;99462.98;1635422;86;21902;-70
2022/01/26 06:36:12;;;;;;;56.80;26.02;;;;;;;-2.47;100.00;99463.67;1637243;86;20183;-70
2022/01/26 06:38:41;;;;;;;49.20;27.27;;;;;;;-2.50;100.00;99458.73;1644152;85;20953;-69
2022/01/26 06:41:07;;;;;;;48.83;26.12;;;;;;;-2.52;100.00;99470.75;1631757;86;20912;-68
2022/01/26 06:43:49;;;;;;;55.05;25.65;;;;;;;-2.55;100.00;99472.88;1639456;86;20930;-71
2022/01/26 06:46:20;;;;;;;42.62;24.12;;;;;;;-2.58;100.00;99476.67;1638214;86;21935;-70
2022/01/26 06:48:58;;;;;;;37.90;19.17;;;;;;;-2.63;100.00;99472.42;1631936;86;20945;-69
2022/01/26 06:51:17;;;;;;;45.08;23.75;;;;;;;-2.68;100.00;99482.63;1635217;86;20985;-69
2022/01/26 06:53:43;;;;;;;46.98;24.00;;;;;;;-2.69;100.00;99492.83;1635367;86;21003;-70
2022/01/26 06:56:12;;;;;;;50.70;23.85;;;;;;;-2.70;100.00;99495.92;1633115;87;20904;-69
2022/01/26 06:58:38;;;;;;;;;;;;;;;-2.72;100.00;99503.19;1637999;85;21491;-67
2022/01/26 07:01:05;;;;;;;34.85;15.70;;;;;;;-2.72;100.00;99507.13;1608902;87;20124;-68
2022/01/26 07:03:32;;;;;;;21.68;14.58;;;;;;;-2.75;100.00;99505.31;1635937;86;20948;-68
2022/01/26 07:05:58;;;;;;;29.95;14.58;;;;;;;-2.83;100.00;99503.03;1656308;86;20925;-68
2022/01/26 07:08:26;;;;;;;23.70;14.25;;;;;;;-2.92;100.00;99498.78;1652935;86;20953;-68
2022/01/26 07:10:54;;;;;;;21.33;13.83;;;;;;;-2.93;100.00;99514.72;1631788;88;21112;-67
2022/01/26 07:13:22;;;;;;;19.00;12.45;;;;;;;-2.98;100.00;99515.22;1632141;88;20994;-69
2022/01/26 07:21:23;;;;;;;24.25;13.83;;;;;;;-3.06;100.00;99527.87;1672040;85;20963;-69
2022/01/26 07:23:50;;;;;;;29.20;17.32;;;;;;;-3.07;100.00;99532.78;1673380;85;21475;-68
2022/01/26 07:26:16;;;;;;;24.23;13.75;;;;;;;-3.06;100.00;99539.70;1674901;85;20861;-71
2022/01/26 07:28:44;;;;;;;27.73;16.57;;;;;;;-3.06;100.00;99544.13;1656614;85;20943;-68
2022/01/26 07:31:10;;;;;;;20.35;12.80;;;;;;;-3.07;100.00;99542.47;1666609;86;21406;-67
2022/01/26 07:33:38;;;;;;;19.92;12.85;;;;;;;-3.08;100.00;99549.53;1669878;86;20904;-69
2022/01/26 07:36:05;;;;;;;23.65;15.48;;;;;;;-3.10;100.00;99549.38;1672741;85;21136;-70
2022/01/26 07:38:34;;;;;;;25.43;13.98;;;;;;;-3.09;100.00;99553.63;1662590;85;20980;-69
2022/01/26 07:41:00;;;;;;;21.50;13.80;;;;;;;-3.10;100.00;99553.31;1685300;85;20908;-68
2022/01/26 07:43:27;;;;;;;21.17;13.10;;;;;;;-3.11;100.00;99545.94;1667138;85;20946;-69
2022/01/26 07:45:54;;;;;;;18.92;11.55;;;;;;;-3.10;100.00;99556.76;1661137;86;20980;-69
2022/01/26 07:48:23;;;;;;;20.90;11.80;;;;;;;-3.08;100.00;99561.35;1663583;85;21105;-68
2022/01/26 07:50:51;;;;;;;18.10;11.97;;;;;;;-3.07;100.00;99569.55;1682459;85;21008;-68
2022/01/26 07:53:18;;;;;;;19.48;11.60;;;;;;;-3.02;100.00;99571.19;1689134;85;20960;-68
2022/01/26 07:55:47;;;;;;;20.85;12.93;;;;;;;-3.04;100.00;99573.18;1689145;85;20971;-69
2022/01/26 07:58:14;;;;;;;25.35;14.28;;;;;;;-3.01;100.00;99568.09;1689021;85;20940;-69
2022/01/26 08:00:41;;;;;;;24.02;15.43;;;;;;;-2.95;100.00;99571.84;1681201;84;21100;-69
2022/01/26 08:03:08;;;;;;;29.87;17.67;;;;;;;-2.87;100.00;99572.64;1676145;84;20898;-68
2022/01/26 08:05:35;;;;;;;35.45;18.00;;;;;;;-2.78;100.00;99580.03;1653803;84;20986;-68
2022/01/26 08:08:02;;;;;;;32.08;17.23;;;;;;;-2.65;100.00;99576.88;1637613;85;20926;-70
2022/01/26 08:10:30;;;;;;;29.37;16.93;;;;;;;-2.54;100.00;99578.35;1663036;85;20965;-68
2022/01/26 08:12:57;;;;;;;21.37;13.72;;;;;;;-2.46;100.00;99576.50;1661811;85;21161;-68
2022/01/26 08:15:27;;;;;;;19.02;13.38;;;;;;;-2.39;100.00;99574.84;1658587;85;20984;-69
2022/01/26 08:17:56;;;;;;;21.52;16.62;;;;;;;-2.27;100.00;99572.67;1656541;84;20982;-68
2022/01/26 08:20:25;;;;;;;23.90;15.72;;;;;;;-2.18;100.00;99578.23;1655430;84;20996;-70
2022/01/26 08:22:55;;;;;;;23.92;16.97;;;;;;;-2.06;100.00;99576.52;1672863;84;21032;-68
2022/01/26 08:25:23;;;;;;;22.50;14.15;;;;;;;-1.88;100.00;99586.81;1670552;84;21605;-69
2022/01/26 08:27:58;;;;;;;21.45;13.62;;;;;;;-1.73;100.00;99585.08;1673223;84;20865;-70
2022/01/26 08:30:22;;;;;;;37.67;20.25;;;;;;;-1.61;100.00;99582.87;1670411;84;21012;-70
2022/01/26 08:32:52;;;;;;;39.90;20.57;;;;;;;-1.49;100.00;99583.27;1678076;84;21454;-69
2022/01/26 08:35:20;;;;;;;45.05;21.65;;;;;;;-1.42;100.00;99585.05;1670207;84;20911;-69
2022/01/26 08:37:49;;;;;;;44.73;23.77;;;;;;;-1.28;100.00;99594.49;1673289;84;21145;-68
2022/01/26 08:40:17;;;;;;;52.80;26.85;;;;;;;-1.27;100.00;99596.97;1673705;84;20902;-69
2022/01/26 08:42:45;;;;;;;50.98;27.35;;;;;;;-1.24;100.00;99595.28;1673165;84;21460;-68
2022/01/26 08:45:13;;;;;;;67.12;34.95;;;;;;;-1.08;100.00;99599.59;1673804;84;21477;-69
2022/01/26 08:47:42;;;;;;;27.90;15.63;;;;;;;-0.98;100.00;99600.67;1670022;84;20936;-71
2022/01/26 08:50:10;;;;;;;;;;;;;;;-0.94;100.00;99597.50;1682152;84;21136;-68
2022/01/26 08:52:36;;;;;;;28.85;15.10;;;;;;;-0.84;100.00;99603.03;1667591;84;20099;-68
2022/01/26 08:55:07;;;;;;;25.48;16.32;;;;;;;-0.90;100.00;99607.20;1668105;84;21510;-68
2022/01/26 08:57:34;;;;;;;26.02;15.68;;;;;;;-0.84;100.00;99606.48;1676043;84;20928;-67
2022/01/26 09:00:01;;;;;;;22.00;12.70;;;;;;;-0.73;100.00;99613.97;1672407;84;20921;-68
2022/01/26 09:02:27;;;;;;;13.18;9.23;;;;;;;-0.77;100.00;99608.72;1672142;84;21142;-68
2022/01/26 09:04:56;;;;;;;16.65;12.50;;;;;;;-0.78;100.00;99608.41;1675511;84;21605;-67
2022/01/26 09:07:22;;;;;;;48.23;30.72;;;;;;;-0.71;100.00;99614.61;1668936;84;20940;-67
2022/01/26 09:09:50;;;;;;;39.33;24.10;;;;;;;-0.68;100.00;99608.97;1665686;84;20961;-66
2022/01/26 09:12:19;;;;;;;36.80;21.40;;;;;;;-0.65;100.00;99612.56;1671776;84;21911;-66
2022/01/26 09:14:46;;;;;;;30.57;19.60;;;;;;;-0.87;100.00;99614.24;1669697;84;21158;-66
2022/01/26 09:17:14;;;;;;;27.75;16.25;;;;;;;-0.96;100.00;99613.17;1649588;87;21489;-68
2022/01/26 09:19:45;;;;;;;26.23;16.67;;;;;;;-0.98;100.00;99609.89;1668784;84;21349;-68
2022/01/26 09:22:13;;;;;;;21.25;13.78;;;;;;;-0.85;100.00;99605.36;1671320;84;20965;-67
2022/01/26 09:24:41;;;;;;;24.82;14.47;;;;;;;-0.77;100.00;99603.95;1678873;84;20969;-68
2022/01/26 09:27:09;;;;;;;18.80;12.70;;;;;;;-0.69;100.00;99603.36;1681406;85;21156;-68
2022/01/26 09:29:37;;;;;;;20.35;11.85;;;;;;;-0.65;100.00;99605.16;1681158;85;21566;-68
2022/01/26 09:32:04;;;;;;;24.57;15.18;;;;;;;-0.65;100.00;99603.34;1667578;85;20984;-69
2022/01/26 09:34:35;;;;;;;16.42;12.33;;;;;;;-0.66;100.00;99603.03;1681225;85;20892;-68
2022/01/26 09:37:03;;;;;;;17.40;10.70;;;;;;;-0.68;100.00;99605.52;1681094;85;20873;-68
2022/01/26 09:39:31;;;;;;;25.85;16.25;;;;;;;-0.73;100.00;99603.42;1681318;85;21156;-67
2022/01/26 09:41:57;;;;;;;27.32;16.25;;;;;;;-0.80;100.00;99599.05;1681189;85;20972;-70
2022/01/26 09:44:24;;;;;;;24.80;14.90;;;;;;;-0.75;100.00;99595.38;1679163;85;20977;-69
2022/01/26 09:46:51;;;;;;;19.87;11.12;;;;;;;-0.95;100.00;99594.56;1669699;85;20917;-69
2022/01/26 09:49:18;;;;;;;20.15;12.45;;;;;;;-0.96;100.00;99604.77;1680877;85;20916;-70
2022/01/26 09:51:49;;;;;;;14.80;10.93;;;;;;;-0.94;100.00;99608.05;1681336;85;21264;-69
2022/01/26 09:54:17;;;;;;;17.23;12.93;;;;;;;-1.05;100.00;99597.95;1663053;85;20973;-67
2022/01/26 09:56:48;;;;;;;14.75;9.30;;;;;;;-1.13;100.00;99595.36;1651861;85;20944;-67
2022/01/26 09:59:15;;;;;;;13.58;9.73;;;;;;;-1.24;100.00;99598.42;1643987;87;20981;-68
2022/01/26 10:01:52;;;;;;;20.75;11.90;;;;;;;-1.14;100.00;99597.18;1644688;85;21487;-67
2022/01/26 10:04:22;;;;;;;14.98;11.22;;;;;;;-1.18;100.00;99595.88;1640645;85;21151;-68
2022/01/26 10:09:58;;;;;;;16.02;10.20;;;;;;;-1.20;100.00;99591.31;1637345;87;21477;-67
2022/01/26 10:15:56;;;;;;;20.35;14.00;;;;;;;-1.23;100.00;99598.73;1637899;85;20892;-67
2022/01/26 10:17:31;;;;;;;;;;;;;;;-1.11;100.00;99599.45;1653804;85;21180;-66
2022/01/26 10:20:03;;;;;;;27.15;16.45;;;;;;;-0.98;100.00;99598.88;1674261;85;21297;-68
2022/01/26 10:22:32;;;;;;;20.05;12.95;;;;;;;-1.06;100.00;99593.66;1678713;83;20876;-66
2022/01/26 10:25:05;;;;;;;19.73;14.00;;;;;;;-0.91;100.00;99597.17;1670510;84;20980;-67
2022/01/26 10:27:42;;;;;;;25.72;16.40;;;;;;;-0.88;100.00;99607.85;1657066;84;20921;-67
2022/01/26 10:30:12;;;;;;;12.05;9.33;;;;;;;-0.89;100.00;99600.92;1657315;86;21149;-67
2022/01/26 10:32:41;;;;;;;11.93;7.80;;;;;;;-0.79;100.00;99603.31;1656820;86;20882;-67
2022/01/26 10:35:09;;;;;;;16.05;9.18;;;;;;;-0.84;100.00;99604.34;1657324;86;20957;-67
2022/01/26 10:37:35;;;;;;;14.98;9.45;;;;;;;-0.81;100.00;99599.52;1658492;85;21446;-68
2022/01/26 10:40:10;;;;;;;24.45;14.07;;;;;;;-0.75;100.00;99608.05;1653059;86;21505;-66
2022/01/26 10:42:36;;;;;;;31.12;17.25;;;;;;;-0.90;100.00;99608.02;1652330;84;21132;-66
2022/01/26 10:45:11;;;;;;;25.00;12.68;;;;;;;-0.88;100.00;99603.90;1654947;85;20941;-66
2022/01/26 10:47:39;;;;;;;36.03;15.98;;;;;;;-0.88;100.00;99603.39;1671677;85;20988;-68
2022/01/26 10:50:44;;;;;;;32.90;15.90;;;;;;;-0.91;100.00;99604.23;1679121;85;20941;-68
2022/01/26 10:53:09;;;;;;;33.83;15.50;;;;;;;-0.92;100.00;99610.01;1658464;86;20937;-65
2022/01/26 10:55:36;;;;;;;31.35;15.78;;;;;;;-0.94;100.00;99605.91;1625512;86;21563;-67
2022/01/26 10:58:04;;;;;;;35.40;15.72;;;;;;;-0.91;100.00;99606.87;1660534;85;21052;-68
2022/01/26 11:00:35;;;;;;;23.47;11.97;;;;;;;-0.93;100.00;99611.02;1689341;85;20961;-67
2022/01/26 11:03:01;;;;;;;22.50;10.38;;;;;;;-0.96;100.00;99613.17;1689166;84;20969;-67
2022/01/26 11:05:28;;;;;;;30.90;12.18;;;;;;;-1.04;100.00;99606.66;1688531;84;21452;-66
2022/01/26 11:07:56;;;;;;;20.75;8.98;;;;;;;-1.13;100.00;99612.48;1661833;84;21859;-67
2022/01/26 11:10:35;;;;;;;15.50;8.55;;;;;;;-1.26;100.00;99611.76;1656444;86;21511;-67
2022/01/26 11:13:04;;;;;;;24.92;11.73;;;;;;;-1.22;100.00;99604.34;1655559;86;20921;-64
2022/01/26 11:15:30;;;;;;;15.68;9.73;;;;;;;-1.28;100.00;99605.84;1681376;84;20949;-65
2022/01/26 11:18:10;;;;;;;19.50;10.63;;;;;;;-1.24;100.00;99606.33;1694200;84;20961;-67
2022/01/26 11:20:52;;;;;;;21.60;11.85;;;;;;;-1.31;100.00;99604.37;1684687;84;21174;-66
2022/01/26 11:23:22;;;;;;;21.15;10.90;;;;;;;-1.30;100.00;99611.30;1637467;86;20934;-67
2022/01/26 11:25:49;;;;;;;48.17;16.87;;;;;;;-1.26;100.00;99601.22;1629833;86;21491;-66
2022/01/26 11:28:24;;;;;;;11.63;6.20;;;;;;;-1.18;100.00;99602.47;1664001;85;20976;-65
2022/01/26 11:30:52;;;;;;;16.40;8.83;;;;;;;-1.17;100.00;99605.95;1677832;85;20999;-66
2022/01/26 11:33:23;;;;;;;20.95;9.85;;;;;;;-1.31;100.00;99603.56;1677572;85;21138;-66
2022/01/26 11:35:52;;;;;;;12.63;8.20;;;;;;;-1.28;100.00;99602.39;1690028;84;21466;-64
2022/01/26 11:46:18;;;;;;;28.50;14.98;;;;;;;-1.46;100.00;99604.81;1609953;87;21862;-67
2022/01/26 11:48:46;;;;;;;46.83;15.85;;;;;;;-1.49;100.00;99599.06;1633657;85;20888;-65
2022/01/26 11:51:13;;;;;;;31.52;14.28;;;;;;;-1.55;100.00;99599.27;1636990;87;20908;-66
2022/01/26 11:53:40;;;;;;;13.10;7.92;;;;;;;-1.57;100.00;99598.16;1639664;87;20969;-67
2022/01/26 11:56:13;;;;;;;31.37;14.68;;;;;;;-1.56;100.00;99605.05;1653942;85;21029;-66
2022/01/26 11:58:44;;;;;;;17.85;10.82;;;;;;;-1.51;100.00;99607.97;1653645;86;21161;-66
2022/01/26 12:01:55;;;;;;;79.00;37.35;;;;;;;-1.47;100.00;99609.77;1653854;86;20965;-67
2022/01/26 12:04:06;;;;;;;27.52;14.47;;;;;;;-1.40;100.00;99598.02;1649133;84;20964;-66
2022/01/26 12:06:36;;;;;;;19.77;12.82;;;;;;;-1.41;100.00;99602.48;1658094;85;21069;-67
2022/01/26 12:09:09;;;;;;;19.65;12.80;;;;;;;-1.44;100.00;99607.29;1656782;85;20945;-68
2022/01/26 12:11:36;;;;;;;16.82;10.15;;;;;;;-1.42;100.00;99611.86;1651316;85;21146;-67
2022/01/26 12:14:07;;;;;;;17.07;11.28;;;;;;;-1.44;100.00;99614.69;1657501;85;20973;-65
2022/01/26 12:16:44;;;;;;;16.87;9.55;;;;;;;-1.54;100.00;99614.91;1657673;85;20992;-66
2022/01/26 12:33:29;;;;;;;6.55;5.95;;;;;;;-1.49;100.00;99615.70;1659806;85;20951;-67
2022/01/26 12:43:38;;;;;;;14.60;8.43;;;;;;;-1.69;100.00;99623.70;1659991;86;20940;-67
2022/01/26 12:46:08;;;;;;;14.70;9.25;;;;;;;-1.68;100.00;99620.09;1654164;86;20936;-67
2022/01/26 12:48:38;;;;;;;12.25;9.03;;;;;;;-1.72;100.00;99626.18;1638082;86;20920;-64
2022/01/26 12:51:06;;;;;;;10.63;7.17;;;;;;;-1.80;100.00;99624.91;1670799;84;21529;-67
2022/01/26 12:53:35;;;;;;;10.53;7.75;;;;;;;-1.76;100.00;99624.41;1658447;85;21493;-68
2022/01/26 12:56:05;;;;;;;10.25;7.45;;;;;;;-1.75;100.00;99627.34;1681527;85;21483;-65
2022/01/26 12:58:38;;;;;;;11.55;8.28;;;;;;;-1.74;100.00;99619.79;1686675;85;20953;-67
2022/01/26 13:01:07;;;;;;;22.82;14.45;;;;;;;-1.78;100.00;99617.67;1653403;85;21054;-64
2022/01/26 13:03:38;;;;;;;13.08;9.90;;;;;;;-1.73;100.00;99627.19;1670783;85;21126;-69
2022/01/26 13:06:13;;;;;;;12.25;9.23;;;;;;;-1.72;100.00;99624.86;1675933;85;20957;-65
2022/01/26 13:08:46;;;;;;;18.37;11.65;;;;;;;-1.73;100.00;99626.68;1624825;88;20995;-68
2022/01/26 13:11:30;;;;;;;25.23;14.18;;;;;;;-1.71;100.00;99622.58;1634159;85;20948;-64